Time;durP1;ratioP1;P1;durP2;ratioP2;P2;SDS_P1;SDS_P2;PMS_P1;PMS_P2;Temp;Humidity;BMP_temperature;BMP_pressure;BME280_temperature;BME280_humidity;BME280_pressure;Samples;Min_cycle;Max_cycle;Signal;HPM_P1;HPM_P2
2022/01/05 00:02:45;;;;;;;2.05;1.35;;;;;;;2.88;81.79;100056.16;5055527;28;20488;-92
2022/01/05 00:05:10;;;;;;;3.95;1.23;;;;;;;2.81;81.95;100058.69;5055847;28;20462;-92
2022/01/05 00:07:36;;;;;;;4.80;1.58;;;;;;;2.75;81.07;100055.25;5056145;28;20025;-91
2022/01/05 00:10:02;;;;;;;6.75;1.50;;;;;;;2.77;81.05;100062.94;5055421;28;20041;-91
2022/01/05 00:12:27;;;;;;;3.60;1.42;;;;;;;2.71;81.33;100055.22;5055598;28;20037;-92
2022/01/05 00:15:06;;;;;;;3.80;1.60;;;;;;;2.68;81.53;100057.78;5055557;28;20377;-92
2022/01/05 00:17:32;;;;;;;2.42;1.40;;;;;;;2.67;80.96;100058.63;5055462;28;20021;-92
2022/01/05 00:19:57;;;;;;;3.95;1.70;;;;;;;2.65;80.95;100055.19;5046551;28;20186;-92
2022/01/05 00:22:23;;;;;;;4.57;1.75;;;;;;;2.58;80.08;100052.63;5035310;28;20124;-92
2022/01/05 00:24:54;;;;;;;4.68;1.55;;;;;;;2.61;80.99;100062.84;5044723;28;20006;-91
2022/01/05 00:27:19;;;;;;;3.72;1.40;;;;;;;2.55;81.06;100046.59;5041660;28;20025;-92
2022/01/05 00:29:44;;;;;;;2.83;1.40;;;;;;;2.58;80.78;100060.31;5035344;28;20037;-92
2022/01/05 00:32:10;;;;;;;4.63;1.52;;;;;;;2.55;80.23;100057.72;5035466;28;20028;-92
2022/01/05 00:34:35;;;;;;;2.40;1.38;;;;;;;2.53;81.12;100056.84;5034217;28;20025;-92
2022/01/05 00:37:20;;;;;;;1.73;1.05;;;;;;;2.46;81.02;100052.56;5039001;28;20052;-91
2022/01/05 00:39:45;;;;;;;2.90;1.23;;;;;;;2.45;80.70;100056.81;5042841;28;20121;-91
2022/01/05 00:42:10;;;;;;;6.35;1.70;;;;;;;2.45;80.06;100067.06;5035808;28;20116;-92
2022/01/05 00:44:36;;;;;;;3.22;1.58;;;;;;;2.39;80.12;100069.59;5035060;28;20022;-91
2022/01/05 00:50:23;;;;;;;4.40;1.58;;;;;;;2.33;80.33;100084.06;5047218;28;20182;-92
2022/01/05 00:52:48;;;;;;;5.18;1.67;;;;;;;2.31;80.45;100084.03;5056807;28;20063;-91
2022/01/05 00:55:13;;;;;;;8.15;1.90;;;;;;;2.24;80.51;100082.28;5094884;28;20109;-92
2022/01/05 00:57:39;;;;;;;6.38;1.80;;;;;;;2.21;80.75;100085.69;5095030;28;20460;-92
2022/01/05 01:00:26;;;;;;;4.13;1.60;;;;;;;2.22;80.55;100095.09;5095097;28;20028;-91
2022/01/05 01:02:51;;;;;;;2.60;1.50;;;;;;;2.18;80.38;100097.63;5093902;28;20024;-92
2022/01/05 01:05:19;;;;;;;2.67;1.42;;;;;;;2.14;80.66;100091.59;5094881;28;20028;-91
2022/01/05 01:08:01;;;;;;;5.53;1.80;;;;;;;2.06;81.14;100081.31;5094556;28;20021;-92
2022/01/05 01:10:27;;;;;;;3.80;1.65;;;;;;;2.05;81.38;100074.50;5094765;28;20028;-91
2022/01/05 01:12:53;;;;;;;3.58;1.40;;;;;;;2.09;80.85;100094.13;5094730;28;20028;-92
2022/01/05 01:15:18;;;;;;;2.58;1.52;;;;;;;2.07;81.16;100098.41;5095054;28;20069;-92
2022/01/05 01:18:20;;;;;;;2.80;1.38;;;;;;;1.96;80.54;100094.91;5093937;28;20539;-91
2022/01/05 01:20:57;;;;;;;5.75;1.80;;;;;;;1.94;81.09;100094.88;5079529;28;20044;-91
2022/01/05 01:23:26;;;;;;;6.85;1.70;;;;;;;1.92;81.34;100095.72;5094683;28;20031;-91
2022/01/05 01:25:52;;;;;;;5.55;1.60;;;;;;;1.91;80.86;100104.22;5108672;28;20028;-91
2022/01/05 01:28:19;;;;;;;2.65;1.58;;;;;;;1.87;81.15;100105.91;5098191;28;20047;-92
2022/01/05 01:31:04;;;;;;;4.07;1.50;;;;;;;1.86;80.88;100109.31;5094065;28;20103;-91
2022/01/05 01:33:30;;;;;;;3.87;1.90;;;;;;;1.86;80.77;100101.63;5094489;28;20027;-91
2022/01/05 01:35:55;;;;;;;9.38;2.20;;;;;;;1.79;80.18;100107.56;5094384;28;20453;-91
2022/01/05 01:38:39;;;;;;;5.40;2.00;;;;;;;1.72;81.11;100101.53;5094326;28;20483;-91
2022/01/05 01:41:05;;;;;;;3.72;1.63;;;;;;;1.75;81.00;100105.81;5094241;28;20097;-90
2022/01/05 01:43:31;;;;;;;6.63;2.17;;;;;;;1.73;81.09;100112.59;5094221;28;20032;-91
2022/01/05 01:46:13;;;;;;;3.65;1.73;;;;;;;1.67;81.21;100111.72;5075494;28;20465;-91
2022/01/05 01:48:38;;;;;;;6.90;2.00;;;;;;;1.62;80.76;100104.84;5074101;28;20028;-92
2022/01/05 01:51:04;;;;;;;6.20;2.00;;;;;;;1.58;80.58;100100.53;5073980;28;20032;-92
2022/01/05 01:53:29;;;;;;;7.78;2.00;;;;;;;1.58;80.57;100103.09;5073072;28;20523;-91
2022/01/05 01:55:57;;;;;;;6.20;2.00;;;;;;;1.56;80.38;100118.44;5073461;28;20037;-91
2022/01/05 01:58:34;;;;;;;7.57;2.10;;;;;;;1.55;80.67;100126.94;5073683;28;20512;-92
2022/01/05 02:00:59;;;;;;;7.03;2.10;;;;;;;1.45;80.79;100113.19;5073611;28;20027;-92
2022/01/05 02:03:25;;;;;;;5.07;2.00;;;;;;;1.46;80.73;100117.47;5073411;28;20020;-91
2022/01/05 02:05:50;;;;;;;6.10;2.10;;;;;;;1.47;80.56;100125.97;5073736;28;20021;-90
2022/01/05 02:08:15;;;;;;;7.25;2.20;;;;;;;1.41;80.46;100118.25;5078394;28;20029;-92
2022/01/05 02:10:41;;;;;;;6.30;2.15;;;;;;;1.39;80.36;100116.53;5073638;28;20028;-91
2022/01/05 02:13:17;;;;;;;6.93;2.10;;;;;;;1.34;80.16;100112.22;5073530;28;20158;-91
2022/01/05 02:15:43;;;;;;;5.55;2.17;;;;;;;1.34;80.33;100110.53;5093551;28;20020;-91
2022/01/05 02:18:57;;;;;;;4.75;1.88;;;;;;;1.37;80.43;100115.66;5098055;28;20107;-91
2022/01/05 02:21:02;;;;;;;4.25;1.80;;;;;;;1.38;80.37;100119.09;5096589;28;20388;-91
2022/01/05 02:23:27;;;;;;;5.97;1.70;;;;;;;1.29;80.55;100104.50;5096777;28;20028;-91
2022/01/05 02:25:53;;;;;;;3.92;1.90;;;;;;;1.28;80.27;100107.91;5093497;28;20080;-91
2022/01/05 02:28:34;;;;;;;4.85;1.65;;;;;;;1.35;80.31;100127.56;5077519;28;20031;-91
2022/01/05 02:31:01;;;;;;;5.43;1.88;;;;;;;1.34;80.54;100128.44;5077363;28;20025;-91
2022/01/05 02:33:26;;;;;;;;;;;;;;;1.34;80.44;100127.56;5077959;28;20091;-91
2022/01/05 02:35:52;;;;;;;3.27;1.80;;;;;;;1.33;80.47;100121.59;5077635;28;19913;-92
2022/01/05 02:38:29;;;;;;;;;;;;;;;;;;;;;
2022/01/05 02:41:06;;;;;;;8.13;1.88;;;;;;;1.28;80.04;100136.03;5074080;28;20033;-91
2022/01/05 02:43:31;;;;;;;5.63;2.00;;;;;;;1.22;79.87;100134.25;5077241;28;20052;-91
2022/01/05 02:46:17;;;;;;;6.25;1.90;;;;;;;1.20;79.51;100132.53;5078554;28;20021;-92
2022/01/05 02:48:43;;;;;;;6.40;1.90;;;;;;;1.15;79.66;100131.59;5096935;28;20034;-92
2022/01/05 02:51:10;;;;;;;7.22;2.10;;;;;;;1.19;80.03;100135.91;5097540;28;20460;-92
2022/01/05 02:53:36;;;;;;;3.70;1.65;;;;;;;1.19;79.79;100141.88;5071855;28;20059;-91
2022/01/05 02:56:08;;;;;;;10.63;2.00;;;;;;;1.12;79.18;100145.22;5081349;28;20024;-92
2022/01/05 02:58:33;;;;;;;5.32;1.80;;;;;;;1.14;79.54;100151.22;5097327;28;20030;-91
2022/01/05 03:01:02;;;;;;;3.72;1.63;;;;;;;1.14;80.04;100152.88;5097058;28;20051;-91
2022/01/05 03:03:28;;;;;;;6.72;2.00;;;;;;;1.10;79.68;100152.00;5097201;28;20104;-92
2022/01/05 03:05:53;;;;;;;7.65;2.15;;;;;;;1.08;79.80;100156.22;5096562;28;20027;-91
2022/01/05 03:08:19;;;;;;;3.45;1.70;;;;;;;1.04;79.36;100150.22;5097063;28;20048;-91
2022/01/05 03:10:59;;;;;;;5.25;1.75;;;;;;;1.01;79.30;100142.53;5095162;28;20153;-91
2022/01/05 03:13:25;;;;;;;4.70;1.90;;;;;;;0.99;79.07;100146.78;5082006;28;20103;-91
2022/01/05 03:15:51;;;;;;;5.00;1.90;;;;;;;1.00;79.57;100155.28;5081146;28;20432;-91
2022/01/05 03:18:17;;;;;;;8.82;1.92;;;;;;;1.05;79.13;100169.84;5076530;28;20101;-91
2022/01/05 03:20:42;;;;;;;6.18;1.80;;;;;;;1.04;79.55;100178.34;5076338;28;20020;-91
2022/01/05 03:23:08;;;;;;;5.80;2.03;;;;;;;1.00;79.55;100176.59;5076145;28;20104;-91
2022/01/05 03:25:46;;;;;;;7.47;2.05;;;;;;;1.03;79.85;100176.63;5086092;28;20027;-90
2022/01/05 03:28:11;;;;;;;5.55;1.60;;;;;;;0.95;79.67;100172.25;5079803;28;20021;-92
2022/01/05 03:30:37;;;;;;;5.15;1.88;;;;;;;1.01;79.51;100180.88;5076416;28;20035;-90
2022/01/05 03:33:11;;;;;;;10.32;2.58;;;;;;;0.98;79.00;100182.50;5075815;28;20031;-90
2022/01/05 03:35:48;;;;;;;8.85;2.20;;;;;;;0.86;79.67;100178.94;5076509;28;20021;-91
2022/01/05 03:38:16;;;;;;;7.35;2.17;;;;;;;0.92;79.61;100191.81;5076209;28;20056;-91
2022/01/05 03:40:45;;;;;;;9.05;2.15;;;;;;;0.86;79.32;100191.72;5075676;28;20023;-91
2022/01/05 03:43:12;;;;;;;7.90;2.25;;;;;;;0.92;79.33;100201.16;5075882;28;20591;-91
2022/01/05 03:46:00;;;;;;;7.00;2.10;;;;;;;0.90;79.70;100202.88;5075765;28;20094;-91
2022/01/05 03:48:25;;;;;;;8.88;2.13;;;;;;;0.90;80.03;100195.19;5076290;28;20377;-91
2022/01/05 03:50:51;;;;;;;4.57;1.70;;;;;;;0.90;79.99;100200.31;5088226;28;20024;-91
2022/01/05 03:53:40;;;;;;;3.40;1.70;;;;;;;0.91;80.40;100196.88;5096284;28;20024;-92
2022/01/05 03:56:05;;;;;;;5.07;1.90;;;;;;;0.89;80.25;100191.78;5095996;28;20036;-91
2022/01/05 03:58:31;;;;;;;7.15;1.90;;;;;;;0.90;80.28;100197.75;5096264;28;20020;-91
2022/01/05 04:01:29;;;;;;;5.47;1.77;;;;;;;0.90;80.07;100195.19;5094393;28;20133;-91
2022/01/05 04:03:54;;;;;;;5.95;1.65;;;;;;;0.92;80.00;100201.16;5095974;28;20016;-91
2022/01/05 04:06:19;;;;;;;5.55;1.80;;;;;;;0.86;79.95;100199.38;5095983;28;20020;-91
2022/01/05 04:08:54;;;;;;;6.80;2.08;;;;;;;0.88;79.93;100194.31;5095184;28;20560;-91
2022/01/05 04:11:19;;;;;;;5.50;1.92;;;;;;;0.86;79.92;100195.97;5095485;28;20024;-91
2022/01/05 04:13:44;;;;;;;4.78;1.90;;;;;;;0.91;80.28;100207.09;5102684;22;20030;-90
2022/01/05 04:16:10;;;;;;;6.57;2.00;;;;;;;0.93;80.07;100202.88;5074766;28;20123;-91
2022/01/05 04:18:35;;;;;;;6.93;2.03;;;;;;;0.90;79.90;100205.41;5075292;28;20021;-91
2022/01/05 04:21:01;;;;;;;6.65;1.90;;;;;;;0.89;79.52;100202.00;5074662;28;20037;-91
2022/01/05 04:23:29;;;;;;;9.50;2.13;;;;;;;0.92;79.93;100214.81;5075477;28;20024;-91
2022/01/05 04:25:57;;;;;;;6.07;2.00;;;;;;;0.89;80.25;100207.09;5078318;28;20044;-90
2022/01/05 04:28:22;;;;;;;5.47;1.90;;;;;;;0.92;79.90;100209.72;5112513;22;20147;-92
2022/01/05 04:30:47;;;;;;;5.57;2.00;;;;;;;0.91;79.47;100219.88;5094722;28;20055;-91
2022/01/05 04:33:13;;;;;;;6.40;1.95;;;;;;;0.92;79.61;100224.16;5095676;28;20384;-91
2022/01/05 04:35:58;;;;;;;7.30;2.03;;;;;;;0.93;79.79;100223.31;5095545;28;20024;-91
2022/01/05 04:38:23;;;;;;;7.60;2.00;;;;;;;0.91;79.99;100225.00;5094677;28;20077;-91
2022/01/05 04:40:58;;;;;;;7.57;2.03;;;;;;;0.86;79.93;100219.81;5077010;28;20016;-91
2022/01/05 04:43:26;;;;;;;7.68;2.00;;;;;;;0.88;79.65;100228.38;5095232;28;20055;-91
2022/01/05 04:45:52;;;;;;;5.95;1.90;;;;;;;0.93;80.11;100233.53;5095273;28;20472;-91
2022/01/05 04:48:17;;;;;;;5.10;1.77;;;;;;;0.97;79.98;100239.56;5095310;28;20017;-91
2022/01/05 04:50:43;;;;;;;4.95;1.70;;;;;;;1.01;80.39;100231.97;5094178;28;20016;-91
2022/01/05 04:53:11;;;;;;;5.97;1.88;;;;;;;0.98;80.10;100231.06;5095248;28;20031;-91
2022/01/05 04:55:53;;;;;;;9.55;2.13;;;;;;;1.07;79.91;100236.28;5094905;28;20020;-91
2022/01/05 04:58:19;;;;;;;8.57;2.00;;;;;;;1.07;80.08;100226.94;5094378;28;20053;-91
2022/01/05 05:00:44;;;;;;;5.88;1.92;;;;;;;1.12;80.20;100239.78;5094888;28;20098;-91
2022/01/05 05:03:09;;;;;;;6.95;2.00;;;;;;;1.13;80.40;100238.94;5095180;28;20024;-91
2022/01/05 05:05:50;;;;;;;6.53;1.90;;;;;;;1.14;80.33;100239.78;5094943;28;20473;-91
2022/01/05 05:08:15;;;;;;;5.28;1.92;;;;;;;1.16;80.38;100233.00;5094903;28;20020;-91
2022/01/05 05:10:40;;;;;;;6.32;2.03;;;;;;;1.25;81.08;100245.91;5094413;28;20388;-90
2022/01/05 05:13:10;;;;;;;9.23;2.03;;;;;;;1.27;80.58;100249.34;5094858;28;20027;-91
2022/01/05 05:15:47;;;;;;;9.50;2.28;;;;;;;1.28;80.38;100251.06;5094693;28;20199;-91
2022/01/05 05:18:15;;;;;;;7.15;1.90;;;;;;;1.30;80.53;100249.41;5088370;28;20024;-91
2022/01/05 05:20:40;;;;;;;9.85;2.20;;;;;;;1.31;80.73;100235.78;5073604;28;20025;-91
2022/01/05 05:23:06;;;;;;;7.28;2.40;;;;;;;1.46;80.17;100252.16;5074356;28;20473;-91
2022/01/05 05:25:31;;;;;;;9.88;2.45;;;;;;;1.45;80.09;100242.75;5074342;28;20032;-91
2022/01/05 05:27:57;;;;;;;5.57;1.90;;;;;;;1.49;80.80;100247.94;5088148;28;20086;-91
2022/01/05 05:30:22;;;;;;;9.38;2.00;;;;;;;1.50;80.25;100241.97;5074329;28;20056;-91
2022/01/05 05:32:47;;;;;;;10.88;2.30;;;;;;;1.57;80.52;100242.03;5074141;28;20032;-91
2022/01/05 05:35:29;;;;;;;8.18;2.20;;;;;;;1.52;80.45;100234.31;5073903;28;20391;-91
2022/01/05 05:37:56;;;;;;;5.28;1.83;;;;;;;1.61;80.77;100248.94;5079894;28;20551;-91
2022/01/05 05:40:21;;;;;;;10.60;2.35;;;;;;;1.59;80.46;100237.81;5094121;28;20028;-91
2022/01/05 05:42:47;;;;;;;4.40;1.83;;;;;;;1.64;80.61;100242.13;5094326;28;20031;-91
2022/01/05 05:45:12;;;;;;;7.43;2.22;;;;;;;1.67;80.65;100252.41;5094371;28;20081;-91
2022/01/05 05:47:38;;;;;;;10.15;2.35;;;;;;;1.68;80.91;100248.16;5096126;28;20032;-90
2022/01/05 05:50:16;;;;;;;6.78;2.08;;;;;;;1.64;80.33;100247.25;5098138;28;20051;-91
2022/01/05 05:52:42;;;;;;;8.50;2.10;;;;;;;1.68;81.04;100243.03;5095219;28;20118;-91
2022/01/05 05:55:08;;;;;;;7.05;1.80;;;;;;;1.69;81.02;100253.25;5093969;28;20056;-92
2022/01/05 05:57:33;;;;;;;5.40;2.05;;;;;;;1.76;80.41;100259.31;5094283;28;20059;-91
2022/01/05 05:59:58;;;;;;;5.78;1.77;;;;;;;1.78;81.13;100256.78;5093690;28;20059;-91
2022/01/05 06:02:23;;;;;;;6.15;1.80;;;;;;;1.79;80.84;100264.47;5094051;28;20059;-91
2022/01/05 06:04:49;;;;;;;6.65;1.90;;;;;;;1.74;80.87;100261.03;5093458;28;20016;-91
2022/01/05 06:07:14;;;;;;;4.82;2.00;;;;;;;1.77;81.11;100270.44;5094089;28;20024;-91
2022/01/05 06:09:59;;;;;;;5.45;2.00;;;;;;;1.80;80.96;100270.47;5094007;28;20115;-91
2022/01/05 06:12:25;;;;;;;6.97;2.00;;;;;;;1.81;81.08;100267.03;5094187;28;20066;-91
2022/01/05 06:14:50;;;;;;;4.45;1.70;;;;;;;1.80;81.00;100276.44;5093789;28;20024;-91
2022/01/05 06:17:28;;;;;;;4.05;1.63;;;;;;;1.75;81.51;100267.81;5079382;28;20033;-91
2022/01/05 06:19:54;;;;;;;3.30;1.80;;;;;;;1.75;80.83;100265.28;5073709;28;20056;-92
2022/01/05 06:22:19;;;;;;;4.65;1.60;;;;;;;1.77;81.18;100265.31;5073260;28;20445;-91
2022/01/05 06:24:44;;;;;;;7.72;2.00;;;;;;;1.77;80.83;100268.72;5073100;28;20031;-92
2022/01/05 06:27:30;;;;;;;6.32;1.90;;;;;;;1.75;81.23;100265.28;5081312;28;20021;-90
2022/01/05 06:29:55;;;;;;;5.22;1.65;;;;;;;1.70;81.18;100265.22;5076889;28;20134;-91
2022/01/05 06:32:20;;;;;;;4.30;1.83;;;;;;;1.76;81.68;100282.34;5073449;28;20056;-91
2022/01/05 06:34:46;;;;;;;6.63;1.70;;;;;;;1.76;81.25;100289.19;5073496;28;20028;-91
2022/01/05 06:37:35;;;;;;;3.72;1.70;;;;;;;1.78;81.23;100282.38;5073191;28;20117;-91
2022/01/05 06:40:00;;;;;;;5.25;1.90;;;;;;;1.79;80.95;100294.34;5073298;28;20068;-91
2022/01/05 06:42:25;;;;;;;6.38;2.08;;;;;;;1.75;81.62;100292.56;5073542;28;20056;-91
2022/01/05 06:45:01;;;;;;;5.65;2.00;;;;;;;1.76;81.61;100294.28;5084589;28;20044;-91
2022/01/05 06:47:27;;;;;;;5.53;2.10;;;;;;;1.79;81.86;100304.56;5094112;28;20035;-91
2022/01/05 06:49:52;;;;;;;5.47;2.05;;;;;;;1.75;81.70;100290.00;5093455;28;20024;-92
2022/01/05 06:52:17;;;;;;;4.32;1.90;;;;;;;1.73;81.70;100289.13;5093667;28;20024;-92
2022/01/05 06:54:43;;;;;;;13.50;2.50;;;;;;;1.79;81.44;100299.44;5093654;28;20026;-91
2022/01/05 06:57:09;;;;;;;8.90;2.50;;;;;;;1.77;81.98;100299.41;5093594;28;20457;-86
2022/01/05 06:59:35;;;;;;;8.60;2.60;;;;;;;1.82;81.28;100305.47;5093104;28;20456;-88
2022/01/05 07:02:01;;;;;;;7.03;2.10;;;;;;;1.79;81.69;100309.69;5095833;28;20027;-85
2022/01/05 07:04:41;;;;;;;9.37;2.83;;;;;;;1.77;82.11;100309.66;5093163;28;20414;-88
2022/01/05 07:07:07;;;;;;;10.68;2.50;;;;;;;1.76;81.96;100309.63;5096463;28;20051;-89
2022/01/05 07:09:32;;;;;;;6.32;2.20;;;;;;;1.80;82.01;100327.59;5097450;28;20426;-87
2022/01/05 07:11:57;;;;;;;7.10;2.30;;;;;;;1.80;82.02;100321.66;5095020;28;20320;-80
2022/01/05 07:14:23;;;;;;;7.13;2.10;;;;;;;1.79;82.45;100314.81;5094971;28;20024;-80
2022/01/05 07:16:49;;;;;;;8.45;2.40;;;;;;;1.82;82.61;100322.50;5095467;28;20016;-81
2022/01/05 07:19:15;;;;;;;8.38;2.55;;;;;;;1.82;81.95;100325.06;5094894;28;20416;-81
2022/01/05 07:21:41;;;;;;;8.55;2.58;;;;;;;1.82;82.57;100315.69;5095250;28;20376;-80
2022/01/05 07:24:17;;;;;;;10.00;2.55;;;;;;;1.78;82.40;100320.75;5095819;28;20065;-80
2022/01/05 07:26:44;;;;;;;5.25;2.10;;;;;;;1.83;82.52;100342.13;5094777;28;20021;-80
2022/01/05 07:29:10;;;;;;;;;;;;;;;1.85;82.41;100338.78;5095893;28;20051;-80
2022/01/05 07:31:35;;;;;;;6.33;2.10;;;;;;;1.87;82.44;100343.03;5095977;28;20368;-80
2022/01/05 07:34:00;;;;;;;5.22;1.83;;;;;;;1.87;82.33;100346.47;5088183;28;20330;-81
2022/01/05 07:36:26;;;;;;;6.45;2.10;;;;;;;1.85;82.60;100336.22;5073666;28;20032;-80
2022/01/05 07:38:51;;;;;;;8.95;2.25;;;;;;;1.91;82.42;100350.78;5074574;28;20037;-80
2022/01/05 07:41:16;;;;;;;5.22;1.90;;;;;;;1.93;82.63;100354.19;5074500;28;20020;-80
2022/01/05 07:43:41;;;;;;;5.70;2.10;;;;;;;1.94;82.69;100358.47;5091977;28;20027;-80
2022/01/05 07:46:07;;;;;;;6.55;2.45;;;;;;;1.96;82.70;100355.97;5093072;28;20039;-80
2022/01/05 07:48:32;;;;;;;6.43;1.90;;;;;;;1.96;82.51;100361.06;5082875;28;20032;-80
2022/01/05 07:50:57;;;;;;;6.78;2.08;;;;;;;1.99;82.29;100361.09;5084791;28;20032;-80
2022/01/05 07:53:23;;;;;;;5.80;1.95;;;;;;;2.02;82.54;100362.84;5077030;28;20099;-80
2022/01/05 07:55:48;;;;;;;7.22;2.10;;;;;;;2.05;83.21;100365.41;5075353;28;20074;-92
2022/01/05 07:58:32;;;;;;;8.18;2.33;;;;;;;2.11;82.66;100373.19;5075402;28;20068;-89
2022/01/05 08:00:57;;;;;;;8.20;2.35;;;;;;;2.19;82.32;100366.44;5075766;28;20031;-89
2022/01/05 08:03:22;;;;;;;9.73;2.50;;;;;;;2.28;81.63;100376.78;5075474;28;20029;-91
2022/01/05 08:05:50;;;;;;;8.90;2.50;;;;;;;2.43;81.18;100390.63;5077902;28;20094;-90
2022/01/05 08:08:34;;;;;;;9.55;2.40;;;;;;;2.48;80.87;100386.38;5095025;28;20047;-87
2022/01/05 08:11:02;;;;;;;8.63;2.40;;;;;;;2.60;81.50;100391.63;5095552;28;20024;-91
2022/01/05 08:13:40;;;;;;;9.95;2.40;;;;;;;2.68;80.17;100385.75;5079310;28;20029;-92
2022/01/05 08:18:59;;;;;;;11.48;2.67;;;;;;;2.85;79.98;100398.72;5077574;28;20039;-91
2022/01/05 08:21:34;;;;;;;12.50;2.80;;;;;;;2.84;80.17;100399.56;5085649;28;20024;-91
2022/01/05 08:24:06;;;;;;;11.43;2.40;;;;;;;2.85;81.14;100394.44;5101100;28;20472;-91
2022/01/05 08:26:32;;;;;;;8.35;2.25;;;;;;;2.89;80.60;100406.47;5095488;28;20118;-93
2022/01/05 08:28:57;;;;;;;14.68;2.70;;;;;;;2.85;79.98;100401.28;5108808;28;20025;-92
2022/01/05 08:31:23;;;;;;;11.23;2.35;;;;;;;2.89;80.52;100387.63;5085559;28;20476;-92
2022/01/05 08:34:00;;;;;;;11.07;2.75;;;;;;;2.89;79.87;100391.06;5075008;28;20033;-89
2022/01/05 08:36:37;;;;;;;9.55;2.53;;;;;;;2.97;80.21;100400.53;5071602;28;20089;-91
2022/01/05 08:39:03;;;;;;;;;;;;;;;2.94;79.86;100399.66;5095414;28;20028;-91
2022/01/05 08:41:38;;;;;;;13.07;2.90;;;;;;;2.92;79.97;100401.38;5094833;28;19912;-91
2022/01/05 08:44:04;;;;;;;7.47;2.20;;;;;;;2.98;80.38;100402.25;5094322;28;20020;-92
2022/01/05 08:46:29;;;;;;;9.35;2.45;;;;;;;2.99;80.36;100415.06;5094223;28;20023;-91
2022/01/05 08:49:15;;;;;;;6.43;1.80;;;;;;;3.03;80.23;100410.84;5094541;28;20046;-91
2022/01/05 08:51:41;;;;;;;10.90;2.40;;;;;;;3.05;80.40;100399.75;5094591;28;20580;-91
2022/01/05 08:54:07;;;;;;;8.25;2.67;;;;;;;3.05;79.99;100398.88;5095491;28;20044;-91
2022/01/05 08:57:17;;;;;;;14.30;2.90;;;;;;;3.10;79.68;100410.03;5094848;28;20031;-92
2022/01/05 08:59:43;;;;;;;13.95;2.72;;;;;;;3.13;79.67;100404.06;5094754;28;20081;-92
2022/01/05 09:02:09;;;;;;;13.18;3.15;;;;;;;3.18;79.31;100402.44;5094929;28;20028;-91
2022/01/05 09:04:34;;;;;;;14.93;3.00;;;;;;;3.28;78.81;100422.16;5094799;28;20051;-92
2022/01/05 09:07:00;;;;;;;10.65;2.92;;;;;;;3.42;78.89;100416.28;5090099;28;20491;-91
2022/01/05 09:09:25;;;;;;;11.70;2.60;;;;;;;3.49;79.40;100418.03;5074671;28;20362;-92
2022/01/05 09:11:51;;;;;;;10.18;2.30;;;;;;;3.53;79.19;100425.75;5074439;28;20032;-92
2022/01/05 09:14:16;;;;;;;8.75;2.40;;;;;;;3.57;78.86;100413.81;5074371;28;20063;-92
2022/01/05 09:16:59;;;;;;;13.95;2.63;;;;;;;3.52;78.79;100426.59;5073963;28;20021;-92
2022/01/05 09:19:24;;;;;;;10.90;2.60;;;;;;;3.48;79.08;100419.75;5074429;28;20158;-92
2022/01/05 09:21:49;;;;;;;9.50;2.38;;;;;;;3.51;80.14;100431.75;5073612;28;20025;-92
2022/01/05 09:24:18;;;;;;;8.40;2.35;;;;;;;3.50;80.40;100447.97;5073873;28;20032;-92
2022/01/05 09:27:19;;;;;;;11.65;2.97;;;;;;;3.45;80.09;100436.81;5073699;28;20107;-91
2022/01/05 09:29:56;;;;;;;13.93;2.72;;;;;;;3.41;80.75;100428.25;5006157;28;20042;-92
2022/01/05 09:32:21;;;;;;;10.30;2.70;;;;;;;3.42;80.94;100450.47;5063734;28;20040;-92
2022/01/05 09:34:46;;;;;;;10.43;2.63;;;;;;;3.47;81.10;100455.66;5074054;28;20073;-92
2022/01/05 09:42:41;;;;;;;9.55;2.47;;;;;;;3.48;81.52;100465.06;5074128;28;20391;-93
2022/01/05 09:45:28;;;;;;;9.05;2.38;;;;;;;3.48;80.96;100481.34;5054204;28;20017;-92
2022/01/05 09:48:47;;;;;;;;;;;;;;;;;;;;;
2022/01/05 09:51:17;;;;;;;7.60;2.20;;;;;;;3.50;80.98;100482.19;5050185;28;20047;-89
2022/01/05 09:54:01;;;;;;;10.98;2.50;;;;;;;3.51;80.93;100494.16;5052265;28;20021;-87
2022/01/05 09:56:32;;;;;;;10.57;2.40;;;;;;;3.46;81.14;100464.19;5053932;28;20045;-92
2022/01/05 09:59:15;;;;;;;10.80;2.40;;;;;;;3.52;80.97;100484.78;5036632;28;20025;-92
2022/01/05 10:01:44;;;;;;;12.90;2.72;;;;;;;3.49;81.55;100480.47;5053491;28;20123;-92
2022/01/05 10:04:11;;;;;;;10.70;2.20;;;;;;;3.53;81.61;100486.50;5053887;28;20036;-92
2022/01/05 10:06:37;;;;;;;11.32;2.40;;;;;;;3.48;81.91;100477.88;5053690;28;20112;-92
2022/01/05 10:09:13;;;;;;;;;;;;;;;;;;;;;
2022/01/05 10:11:39;;;;;;;11.20;2.40;;;;;;;3.54;82.12;100478.81;5047902;28;20037;-92
2022/01/05 10:14:06;;;;;;;9.15;2.40;;;;;;;3.59;81.30;100481.41;5053492;28;20417;-92
2022/01/05 10:17:19;;;;;;;12.73;2.60;;;;;;;3.70;81.42;100489.19;5053894;28;20035;-91
2022/01/05 10:19:45;;;;;;;6.40;2.20;;;;;;;3.64;82.13;100492.56;5011214;28;20038;-92
2022/01/05 10:22:34;;;;;;;12.10;2.20;;;;;;;3.75;82.22;100497.78;5012087;28;20090;-92
2022/01/05 10:25:21;;;;;;;12.13;2.55;;;;;;;3.87;82.02;100497.00;5008881;28;20125;-92
2022/01/05 10:28:02;;;;;;;12.98;2.60;;;;;;;4.01;81.64;100500.50;5023782;28;20014;-91
2022/01/05 10:30:54;;;;;;;11.13;2.67;;;;;;;4.11;80.92;100495.44;5014217;28;20061;-92
2022/01/05 10:33:28;;;;;;;9.38;2.42;;;;;;;4.08;80.58;100501.41;5012178;28;20038;-92
2022/01/05 10:35:56;;;;;;;11.60;2.30;;;;;;;4.17;80.58;100505.75;5014693;28;20025;-92
2022/01/05 10:39:09;;;;;;;12.23;2.53;;;;;;;4.22;79.38;100498.06;5015437;28;20042;-91
2022/01/05 10:41:42;;;;;;;15.30;3.08;;;;;;;4.22;79.61;100504.06;5015433;28;20137;-90
2022/01/05 10:44:36;;;;;;;11.15;2.40;;;;;;;4.32;79.31;100510.97;5015421;28;20034;-89
2022/01/05 10:47:03;;;;;;;9.93;2.30;;;;;;;4.43;79.15;100505.88;5015671;28;20398;-90
2022/01/05 10:49:54;;;;;;;11.80;2.63;;;;;;;4.58;78.80;100514.50;5015342;28;20094;-90
2022/01/05 10:52:52;;;;;;;13.57;2.83;;;;;;;4.68;79.01;100523.09;5029010;28;20100;-90
2022/01/05 10:55:19;;;;;;;11.38;2.38;;;;;;;4.81;78.16;100524.03;5037142;28;20119;-91
2022/01/05 10:58:07;;;;;;;;;;;;;;;4.88;78.20;100538.59;5057426;28;20029;-89
2022/01/05 11:01:02;;;;;;;13.32;2.50;;;;;;;5.03;76.55;100537.78;5056623;28;19958;-87
2022/01/05 11:03:58;;;;;;;13.73;3.40;;;;;;;5.05;76.31;100531.81;5056384;28;20029;-85
2022/01/05 11:07:16;;;;;;;8.50;2.30;;;;;;;5.02;77.41;100520.63;5338948;22;20267;-90
2022/01/05 11:10:05;;;;;;;10.65;2.40;;;;;;;4.92;77.45;100538.63;5055997;28;20048;-88
2022/01/05 11:12:36;;;;;;;12.35;2.25;;;;;;;4.91;75.83;100538.63;5055922;28;20036;-85
2022/01/05 11:15:30;;;;;;;10.25;2.28;;;;;;;4.92;76.63;100545.47;5055293;28;20036;-86
2022/01/05 11:18:11;;;;;;;10.13;2.65;;;;;;;4.90;76.36;100560.03;5070705;28;20028;-85
2022/01/05 11:20:55;;;;;;;15.50;2.97;;;;;;;4.86;77.24;100542.88;5075512;28;20423;-86
2022/01/05 11:23:25;;;;;;;13.02;2.85;;;;;;;4.83;77.36;100548.03;5075425;28;20040;-85
2022/01/05 11:25:52;;;;;;;12.27;2.72;;;;;;;4.81;77.41;100552.31;5074262;28;20025;-86
2022/01/05 11:28:20;;;;;;;13.32;2.50;;;;;;;4.82;77.37;100559.16;5075754;28;20444;-86
2022/01/05 11:30:47;;;;;;;9.80;2.30;;;;;;;4.87;78.26;100560.91;5075124;28;20027;-86
2022/01/05 11:33:12;;;;;;;12.77;2.35;;;;;;;4.93;77.80;100562.63;5040357;28;20521;-88
2022/01/05 11:35:41;;;;;;;12.00;2.60;;;;;;;4.99;77.39;100562.63;5035792;28;20105;-88
2022/01/05 11:38:10;;;;;;;9.77;2.40;;;;;;;4.96;78.18;100567.75;5035437;28;20370;-87
2022/01/05 11:40:38;;;;;;;9.30;2.85;;;;;;;5.03;77.68;100582.38;5035440;28;20021;-87
2022/01/05 11:43:30;;;;;;;13.02;2.70;;;;;;;5.02;77.21;100574.66;5035452;28;20064;-87
2022/01/05 11:45:54;;;;;;;12.93;2.75;;;;;;;4.99;77.56;100580.66;5033531;28;20036;-87
2022/01/05 11:48:40;;;;;;;14.03;2.77;;;;;;;4.99;77.37;100578.06;5034377;28;20037;-87
2022/01/05 11:51:06;;;;;;;11.50;2.50;;;;;;;4.94;77.81;100582.34;5035603;28;20486;-86
2022/01/05 11:53:34;;;;;;;13.95;2.90;;;;;;;4.91;78.15;100567.75;5034761;28;20091;-86
2022/01/05 11:56:18;;;;;;;10.65;2.40;;;;;;;4.88;77.98;100577.19;5036920;28;20025;-88
2022/01/05 11:59:11;;;;;;;14.52;2.70;;;;;;;4.87;78.46;100563.47;5034976;28;20025;-87
2022/01/05 12:01:37;;;;;;;13.65;2.67;;;;;;;4.83;78.40;100576.31;5034098;28;20519;-88
2022/01/05 12:04:06;;;;;;;13.90;2.53;;;;;;;4.87;78.83;100589.19;5046733;28;20378;-87
2022/01/05 12:06:47;;;;;;;13.05;2.83;;;;;;;4.89;79.32;100592.63;5073770;28;20171;-88
2022/01/05 12:09:38;;;;;;;7.00;2.17;;;;;;;4.91;79.05;100578.03;5074723;28;20040;-87